sensor_id;sensor_type;location;lat;lon;timestamp;temperature;humidity
15636;DHT22;7917;50.818;6.972;2022-10-16T07:28:19;14.00;99.90
15636;DHT22;7917;50.818;6.972;2022-10-16T07:30:46;13.90;99.90
15636;DHT22;7917;50.818;6.972;2022-10-16T07:33:14;13.90;99.90
15636;DHT22;7917;50.818;6.972;2022-10-16T07:35:48;14.00;99.90
15636;DHT22;7917;50.818;6.972;2022-10-16T07:38:15;14.10;99.90
15636;DHT22;7917;50.818;6.972;2022-10-16T07:40:42;14.10;99.90
15636;DHT22;7917;50.818;6.972;2022-10-16T07:43:09;14.20;99.90
15636;DHT22;7917;50.818;6.972;2022-10-16T07:45:46;14.20;99.90
15636;DHT22;7917;50.818;6.972;2022-10-16T07:48:13;14.20;99.90
15636;DHT22;7917;50.818;6.972;2022-10-16T07:50:40;14.10;99.90
15636;DHT22;7917;50.818;6.972;2022-10-16T07:53:08;14.10;99.90
15636;DHT22;7917;50.818;6.972;2022-10-16T07:55:35;14.10;99.90
15636;DHT22;7917;50.818;6.972;2022-10-16T07:58:02;14.20;99.90
15636;DHT22;7917;50.818;6.972;2022-10-16T08:00:30;14.20;99.90
15636;DHT22;7917;50.818;6.972;2022-10-16T08:02:59;14.10;99.90
15636;DHT22;7917;50.818;6.972;2022-10-16T08:05:27;14.10;99.90
15636;DHT22;7917;50.818;6.972;2022-10-16T08:07:55;14.00;99.90
15636;DHT22;7917;50.818;6.972;2022-10-16T08:10:24;13.90;99.90
15636;DHT22;7917;50.818;6.972;2022-10-16T08:12:52;13.90;99.90
15636;DHT22;7917;50.818;6.972;2022-10-16T08:15:20;14.00;99.90
15636;DHT22;7917;50.818;6.972;2022-10-16T08:17:55;14.20;99.90
15636;DHT22;7917;50.818;6.972;2022-10-16T08:20:24;14.50;99.90
15636;DHT22;7917;50.818;6.972;2022-10-16T08:22:51;14.70;99.90
15636;DHT22;7917;50.818;6.972;2022-10-16T08:25:20;14.90;99.90
15636;DHT22;7917;50.818;6.972;2022-10-16T08:27:47;15.10;99.90
15636;DHT22;7917;50.818;6.972;2022-10-16T08:30:14;15.30;99.90
15636;DHT22;7917;50.818;6.972;2022-10-16T08:32:42;15.60;99.90
15636;DHT22;7917;50.818;6.972;2022-10-16T08:35:10;15.80;99.90
15636;DHT22;7917;50.818;6.972;2022-10-16T08:37:39;16.00;99.90
15636;DHT22;7917;50.818;6.972;2022-10-16T08:40:11;16.10;99.90
15636;DHT22;7917;50.818;6.972;2022-10-16T08:42:52;16.20;99.90
15636;DHT22;7917;50.818;6.972;2022-10-16T08:45:34;16.40;99.90
15636;DHT22;7917;50.818;6.972;2022-10-16T08:48:17;16.40;99.90
15636;DHT22;7917;50.818;6.972;2022-10-16T08:50:45;16.50;99.90
15636;DHT22;7917;50.818;6.972;2022-10-16T08:53:20;16.70;99.90
15636;DHT22;7917;50.818;6.972;2022-10-16T08:55:50;16.80;99.90
15636;DHT22;7917;50.818;6.972;2022-10-16T08:58:20;16.80;99.90
15636;DHT22;7917;50.818;6.972;2022-10-16T09:00:51;16.80;99.90
15636;DHT22;7917;50.818;6.972;2022-10-16T09:03:36;16.80;99.90
15636;DHT22;7917;50.818;6.972;2022-10-16T09:06:24;16.70;99.90
15636;DHT22;7917;50.818;6.972;2022-10-16T09:09:06;16.70;99.90
15636;DHT22;7917;50.818;6.972;2022-10-16T09:11:44;17.00;99.90
15636;DHT22;7917;50.818;6.972;2022-10-16T09:14:29;17.20;99.90
15636;DHT22;7917;50.818;6.972;2022-10-16T09:17:14;17.30;99.90
15636;DHT22;7917;50.818;6.972;2022-10-16T09:19:50;17.20;99.90
15636;DHT22;7917;50.818;6.972;2022-10-16T09:22:18;17.00;99.90
15636;DHT22;7917;50.818;6.972;2022-10-16T09:24:49;17.00;99.90
15636;DHT22;7917;50.818;6.972;2022-10-16T09:27:16;17.10;99.90
15636;DHT22;7917;50.818;6.972;2022-10-16T09:29:44;17.20;99.90
15636;DHT22;7917;50.818;6.972;2022-10-16T09:32:12;17.40;99.90
15636;DHT22;7917;50.818;6.972;2022-10-16T09:34:45;17.30;99.90
15636;DHT22;7917;50.818;6.972;2022-10-16T09:37:18;17.30;99.90
15636;DHT22;7917;50.818;6.972;2022-10-16T09:39:50;17.40;99.90
15636;DHT22;7917;50.818;6.972;2022-10-16T09:42:19;17.50;99.90
15636;DHT22;7917;50.818;6.972;2022-10-16T09:44:48;17.50;99.90
15636;DHT22;7917;50.818;6.972;2022-10-16T09:47:21;17.50;99.90
15636;DHT22;7917;50.818;6.972;2022-10-16T09:49:53;17.60;99.90
15636;DHT22;7917;50.818;6.972;2022-10-16T09:52:21;17.60;99.90
15636;DHT22;7917;50.818;6.972;2022-10-16T09:54:52;17.60;99.90
15636;DHT22;7917;50.818;6.972;2022-10-16T09:57:20;17.70;99.90
15636;DHT22;7917;50.818;6.972;2022-10-16T09:59:49;17.80;99.90
15636;DHT22;7917;50.818;6.972;2022-10-16T10:02:17;17.80;99.90
15636;DHT22;7917;50.818;6.972;2022-10-16T10:04:49;17.80;99.90
15636;DHT22;7917;50.818;6.972;2022-10-16T10:07:24;17.90;99.90
15636;DHT22;7917;50.818;6.972;2022-10-16T10:09:54;18.00;99.90
15636;DHT22;7917;50.818;6.972;2022-10-16T10:12:23;18.30;99.90
15636;DHT22;7917;50.818;6.972;2022-10-16T10:14:52;18.50;99.90
15636;DHT22;7917;50.818;6.972;2022-10-16T10:17:21;18.60;99.90
15636;DHT22;7917;50.818;6.972;2022-10-16T10:19:51;18.60;99.90
15636;DHT22;7917;50.818;6.972;2022-10-16T10:22:26;18.60;99.90
15636;DHT22;7917;50.818;6.972;2022-10-16T10:25:32;18.80;99.90
15636;DHT22;7917;50.818;6.972;2022-10-16T10:31:12;19.10;99.90
15636;DHT22;7917;50.818;6.972;2022-10-16T10:33:45;19.20;99.90
15636;DHT22;7917;50.818;6.972;2022-10-16T10:36:25;19.20;99.90
15636;DHT22;7917;50.818;6.972;2022-10-16T10:38:58;19.40;99.90
15636;DHT22;7917;50.818;6.972;2022-10-16T10:44:42;19.70;99.90
15636;DHT22;7917;50.818;6.972;2022-10-16T10:47:19;19.80;99.90
15636;DHT22;7917;50.818;6.972;2022-10-16T10:50:02;20.00;99.90
15636;DHT22;7917;50.818;6.972;2022-10-16T10:52:39;20.00;99.90
15636;DHT22;7917;50.818;6.972;2022-10-16T10:55:18;20.10;99.90
15636;DHT22;7917;50.818;6.972;2022-10-16T10:57:59;20.10;99.90
15636;DHT22;7917;50.818;6.972;2022-10-16T11:00:38;20.10;99.90
15636;DHT22;7917;50.818;6.972;2022-10-16T11:03:19;20.10;99.90
15636;DHT22;7917;50.818;6.972;2022-10-16T11:05:56;20.10;99.90
15636;DHT22;7917;50.818;6.972;2022-10-16T11:08:29;20.20;99.90
15636;DHT22;7917;50.818;6.972;2022-10-16T11:11:01;20.40;99.90
15636;DHT22;7917;50.818;6.972;2022-10-16T11:13:32;20.50;99.90
15636;DHT22;7917;50.818;6.972;2022-10-16T11:16:06;20.80;99.90
15636;DHT22;7917;50.818;6.972;2022-10-16T11:18:46;20.90;99.90
15636;DHT22;7917;50.818;6.972;2022-10-16T11:21:19;20.80;99.90
15636;DHT22;7917;50.818;6.972;2022-10-16T11:23:51;20.50;99.90
15636;DHT22;7917;50.818;6.972;2022-10-16T11:26:23;20.40;99.90
15636;DHT22;7917;50.818;6.972;2022-10-16T11:28:54;20.20;99.90
15636;DHT22;7917;50.818;6.972;2022-10-16T11:31:28;20.20;99.90
15636;DHT22;7917;50.818;6.972;2022-10-16T11:34:04;20.40;99.90
15636;DHT22;7917;50.818;6.972;2022-10-16T11:36:38;20.50;99.90
15636;DHT22;7917;50.818;6.972;2022-10-16T11:39:16;20.40;99.90
15636;DHT22;7917;50.818;6.972;2022-10-16T11:41:49;20.40;99.90
15636;DHT22;7917;50.818;6.972;2022-10-16T11:44:38;20.50;99.90
15636;DHT22;7917;50.818;6.972;2022-10-16T11:47:17;20.40;99.90
15636;DHT22;7917;50.818;6.972;2022-10-16T11:49:47;20.30;99.90
15636;DHT22;7917;50.818;6.972;2022-10-16T11:52:22;20.30;99.90
15636;DHT22;7917;50.818;6.972;2022-10-16T11:54:54;20.40;99.90
15636;DHT22;7917;50.818;6.972;2022-10-16T11:57:26;20.50;99.90
15636;DHT22;7917;50.818;6.972;2022-10-16T11:59:57;20.60;56.80
15636;DHT22;7917;50.818;6.972;2022-10-16T12:02:43;20.70;99.90
15636;DHT22;7917;50.818;6.972;2022-10-16T12:05:20;20.70;99.90
15636;DHT22;7917;50.818;6.972;2022-10-16T12:07:55;20.50;99.90
15636;DHT22;7917;50.818;6.972;2022-10-16T12:10:29;20.60;99.90
15636;DHT22;7917;50.818;6.972;2022-10-16T12:12:57;20.60;99.90
15636;DHT22;7917;50.818;6.972;2022-10-16T12:15:26;20.70;99.90
15636;DHT22;7917;50.818;6.972;2022-10-16T12:17:56;20.70;99.90
15636;DHT22;7917;50.818;6.972;2022-10-16T12:20:28;20.80;99.90
15636;DHT22;7917;50.818;6.972;2022-10-16T12:23:00;21.10;25.30
15636;DHT22;7917;50.818;6.972;2022-10-16T12:25:29;21.20;99.90
15636;DHT22;7917;50.818;6.972;2022-10-16T12:28:00;21.50;99.90
15636;DHT22;7917;50.818;6.972;2022-10-16T12:30:30;21.80;99.90
15636;DHT22;7917;50.818;6.972;2022-10-16T12:33:02;21.60;99.90
15636;DHT22;7917;50.818;6.972;2022-10-16T12:35:34;21.40;99.90
15636;DHT22;7917;50.818;6.972;2022-10-16T12:38:16;21.30;99.90
15636;DHT22;7917;50.818;6.972;2022-10-16T12:40:55;21.10;99.90
15636;DHT22;7917;50.818;6.972;2022-10-16T12:43:36;21.10;99.90
15636;DHT22;7917;50.818;6.972;2022-10-16T12:46:21;21.00;99.90
15636;DHT22;7917;50.818;6.972;2022-10-16T12:48:50;20.90;99.90
15636;DHT22;7917;50.818;6.972;2022-10-16T12:51:24;20.90;99.90
15636;DHT22;7917;50.818;6.972;2022-10-16T12:54:02;21.10;99.90
15636;DHT22;7917;50.818;6.972;2022-10-16T12:56:39;21.40;99.90
15636;DHT22;7917;50.818;6.972;2022-10-16T12:59:18;21.70;99.90
15636;DHT22;7917;50.818;6.972;2022-10-16T13:02:06;21.70;99.90
15636;DHT22;7917;50.818;6.972;2022-10-16T13:04:49;21.90;99.90
15636;DHT22;7917;50.818;6.972;2022-10-16T13:07:33;21.80;53.40
15636;DHT22;7917;50.818;6.972;2022-10-16T13:10:14;21.80;99.90
15636;DHT22;7917;50.818;6.972;2022-10-16T13:13:00;21.80;40.40
15636;DHT22;7917;50.818;6.972;2022-10-16T13:15:43;21.70;99.90
15636;DHT22;7917;50.818;6.972;2022-10-16T13:18:16;21.50;99.90
15636;DHT22;7917;50.818;6.972;2022-10-16T13:21:11;21.30;99.90
15636;DHT22;7917;50.818;6.972;2022-10-16T13:23:48;21.10;99.90
15636;DHT22;7917;50.818;6.972;2022-10-16T13:26:26;20.90;99.90
15636;DHT22;7917;50.818;6.972;2022-10-16T13:28:59;20.90;99.90
15636;DHT22;7917;50.818;6.972;2022-10-16T13:31:28;20.90;99.90
15636;DHT22;7917;50.818;6.972;2022-10-16T13:33:58;20.70;99.90
15636;DHT22;7917;50.818;6.972;2022-10-16T13:36:28;20.60;99.90
15636;DHT22;7917;50.818;6.972;2022-10-16T13:39:11;20.60;99.90
15636;DHT22;7917;50.818;6.972;2022-10-16T13:41:39;20.60;99.90
15636;DHT22;7917;50.818;6.972;2022-10-16T13:44:14;20.60;99.90
15636;DHT22;7917;50.818;6.972;2022-10-16T13:46:41;20.70;99.90
15636;DHT22;7917;50.818;6.972;2022-10-16T13:49:14;20.70;99.90
15636;DHT22;7917;50.818;6.972;2022-10-16T13:51:54;20.70;99.90
15636;DHT22;7917;50.818;6.972;2022-10-16T13:54:22;20.50;99.90
15636;DHT22;7917;50.818;6.972;2022-10-16T13:57:17;20.40;99.90
15636;DHT22;7917;50.818;6.972;2022-10-16T13:59:44;20.60;99.90
15636;DHT22;7917;50.818;6.972;2022-10-16T14:02:20;20.70;99.90
15636;DHT22;7917;50.818;6.972;2022-10-16T14:04:49;20.60;99.90
15636;DHT22;7917;50.818;6.972;2022-10-16T14:07:23;20.70;99.90
15636;DHT22;7917;50.818;6.972;2022-10-16T14:09:52;20.70;99.90
15636;DHT22;7917;50.818;6.972;2022-10-16T14:12:20;20.70;99.90
15636;DHT22;7917;50.818;6.972;2022-10-16T14:14:50;20.70;99.90
15636;DHT22;7917;50.818;6.972;2022-10-16T14:17:20;20.70;99.90
15636;DHT22;7917;50.818;6.972;2022-10-16T14:19:50;20.90;99.90
15636;DHT22;7917;50.818;6.972;2022-10-16T14:22:29;21.00;99.90
15636;DHT22;7917;50.818;6.972;2022-10-16T14:24:57;21.00;99.90
15636;DHT22;7917;50.818;6.972;2022-10-16T14:27:30;20.90;99.90
15636;DHT22;7917;50.818;6.972;2022-10-16T14:30:15;20.80;99.90
15636;DHT22;7917;50.818;6.972;2022-10-16T14:32:54;20.70;99.90
15636;DHT22;7917;50.818;6.972;2022-10-16T14:35:24;20.60;99.90
15636;DHT22;7917;50.818;6.972;2022-10-16T14:37:55;20.60;99.90
15636;DHT22;7917;50.818;6.972;2022-10-16T14:40:27;20.70;99.90
15636;DHT22;7917;50.818;6.972;2022-10-16T14:42:55;20.70;99.90
15636;DHT22;7917;50.818;6.972;2022-10-16T14:45:24;20.70;99.90
15636;DHT22;7917;50.818;6.972;2022-10-16T14:47:55;20.70;99.90
15636;DHT22;7917;50.818;6.972;2022-10-16T14:50:23;20.60;99.90
15636;DHT22;7917;50.818;6.972;2022-10-16T14:52:50;20.70;99.90
15636;DHT22;7917;50.818;6.972;2022-10-16T14:55:19;20.50;99.90
15636;DHT22;7917;50.818;6.972;2022-10-16T14:57:47;20.40;99.90
15636;DHT22;7917;50.818;6.972;2022-10-16T15:00:18;20.30;99.90
15636;DHT22;7917;50.818;6.972;2022-10-16T15:02:47;20.20;99.90
15636;DHT22;7917;50.818;6.972;2022-10-16T15:05:18;20.10;99.90
15636;DHT22;7917;50.818;6.972;2022-10-16T15:07:46;20.00;99.90
15636;DHT22;7917;50.818;6.972;2022-10-16T15:10:13;19.90;99.90
15636;DHT22;7917;50.818;6.972;2022-10-16T15:12:43;19.80;99.90
15636;DHT22;7917;50.818;6.972;2022-10-16T15:15:25;19.70;99.90
15636;DHT22;7917;50.818;6.972;2022-10-16T15:17:55;19.60;99.90
15636;DHT22;7917;50.818;6.972;2022-10-16T15:20:23;19.40;99.90
15636;DHT22;7917;50.818;6.972;2022-10-16T15:22:50;19.40;99.90
15636;DHT22;7917;50.818;6.972;2022-10-16T15:25:30;19.20;99.90
15636;DHT22;7917;50.818;6.972;2022-10-16T15:28:00;19.20;99.90
15636;DHT22;7917;50.818;6.972;2022-10-16T15:30:28;19.00;99.90
15636;DHT22;7917;50.818;6.972;2022-10-16T15:32:55;19.00;99.90
15636;DHT22;7917;50.818;6.972;2022-10-16T15:35:23;18.90;99.90
15636;DHT22;7917;50.818;6.972;2022-10-16T15:37:50;18.90;99.90
15636;DHT22;7917;50.818;6.972;2022-10-16T15:40:19;18.80;99.90
15636;DHT22;7917;50.818;6.972;2022-10-16T15:42:48;18.80;99.90
15636;DHT22;7917;50.818;6.972;2022-10-16T15:45:23;18.70;99.90
15636;DHT22;7917;50.818;6.972;2022-10-16T15:47:50;18.60;99.90
15636;DHT22;7917;50.818;6.972;2022-10-16T15:50:17;18.60;99.90
15636;DHT22;7917;50.818;6.972;2022-10-16T15:52:45;18.60;99.90
15636;DHT22;7917;50.818;6.972;2022-10-16T15:55:13;18.50;99.90
15636;DHT22;7917;50.818;6.972;2022-10-16T15:57:41;18.50;99.90
15636;DHT22;7917;50.818;6.972;2022-10-16T16:00:13;18.40;99.90
15636;DHT22;7917;50.818;6.972;2022-10-16T16:02:42;18.30;99.90
15636;DHT22;7917;50.818;6.972;2022-10-16T16:05:10;18.30;99.90
15636;DHT22;7917;50.818;6.972;2022-10-16T16:07:38;18.20;99.90
15636;DHT22;7917;50.818;6.972;2022-10-16T16:10:08;18.20;99.90
15636;DHT22;7917;50.818;6.972;2022-10-16T16:12:36;18.10;99.90
15636;DHT22;7917;50.818;6.972;2022-10-16T16:15:05;18.00;99.90
15636;DHT22;7917;50.818;6.972;2022-10-16T16:17:33;18.00;99.90
15636;DHT22;7917;50.818;6.972;2022-10-16T16:20:04;17.90;99.90
15636;DHT22;7917;50.818;6.972;2022-10-16T16:22:33;17.90;99.90
15636;DHT22;7917;50.818;6.972;2022-10-16T16:25:01;17.80;99.90
15636;DHT22;7917;50.818;6.972;2022-10-16T16:27:29;17.80;99.90
15636;DHT22;7917;50.818;6.972;2022-10-16T16:29:59;17.80;99.90
15636;DHT22;7917;50.818;6.972;2022-10-16T16:32:27;17.70;99.90
15636;DHT22;7917;50.818;6.972;2022-10-16T16:34:54;17.70;99.90
15636;DHT22;7917;50.818;6.972;2022-10-16T16:37:23;17.70;99.90
15636;DHT22;7917;50.818;6.972;2022-10-16T16:39:51;17.60;99.90
15636;DHT22;7917;50.818;6.972;2022-10-16T16:42:20;17.60;99.90
15636;DHT22;7917;50.818;6.972;2022-10-16T16:44:47;17.60;99.90
15636;DHT22;7917;50.818;6.972;2022-10-16T16:47:15;17.60;99.90
15636;DHT22;7917;50.818;6.972;2022-10-16T16:49:42;17.50;99.90
15636;DHT22;7917;50.818;6.972;2022-10-16T16:52:10;17.50;99.90
15636;DHT22;7917;50.818;6.972;2022-10-16T16:54:40;17.50;99.90
15636;DHT22;7917;50.818;6.972;2022-10-16T16:57:08;17.40;99.90
15636;DHT22;7917;50.818;6.972;2022-10-16T16:59:36;17.40;99.90
15636;DHT22;7917;50.818;6.972;2022-10-16T17:02:04;17.40;99.90
15636;DHT22;7917;50.818;6.972;2022-10-16T17:04:31;17.50;99.90
15636;DHT22;7917;50.818;6.972;2022-10-16T17:06:59;17.50;99.90
15636;DHT22;7917;50.818;6.972;2022-10-16T17:09:27;17.50;99.90
15636;DHT22;7917;50.818;6.972;2022-10-16T17:11:57;17.50;99.90
15636;DHT22;7917;50.818;6.972;2022-10-16T17:14:24;17.50;99.90
15636;DHT22;7917;50.818;6.972;2022-10-16T17:16:52;17.50;99.90
15636;DHT22;7917;50.818;6.972;2022-10-16T17:19:20;17.50;99.90
15636;DHT22;7917;50.818;6.972;2022-10-16T17:21:49;17.40;99.90
15636;DHT22;7917;50.818;6.972;2022-10-16T17:24:17;17.30;99.90
15636;DHT22;7917;50.818;6.972;2022-10-16T17:26:46;17.30;99.90
15636;DHT22;7917;50.818;6.972;2022-10-16T17:29:17;17.30;99.90
15636;DHT22;7917;50.818;6.972;2022-10-16T17:31:45;17.30;99.90
15636;DHT22;7917;50.818;6.972;2022-10-16T17:34:14;17.30;99.90
15636;DHT22;7917;50.818;6.972;2022-10-16T17:36:42;17.30;99.90
15636;DHT22;7917;50.818;6.972;2022-10-16T17:39:14;17.30;99.90
15636;DHT22;7917;50.818;6.972;2022-10-16T17:41:43;17.30;99.90
15636;DHT22;7917;50.818;6.972;2022-10-16T17:44:11;17.30;99.90
15636;DHT22;7917;50.818;6.972;2022-10-16T17:46:47;17.30;99.90
15636;DHT22;7917;50.818;6.972;2022-10-16T17:49:15;17.30;99.90
15636;DHT22;7917;50.818;6.972;2022-10-16T17:51:43;17.20;99.90
15636;DHT22;7917;50.818;6.972;2022-10-16T17:54:11;17.20;99.90
15636;DHT22;7917;50.818;6.972;2022-10-16T17:56:39;17.20;99.90
15636;DHT22;7917;50.818;6.972;2022-10-16T17:59:06;17.20;99.90
15636;DHT22;7917;50.818;6.972;2022-10-16T18:01:36;17.10;99.90
15636;DHT22;7917;50.818;6.972;2022-10-16T18:04:11;17.20;99.90
15636;DHT22;7917;50.818;6.972;2022-10-16T18:06:39;17.20;99.90
15636;DHT22;7917;50.818;6.972;2022-10-16T18:09:10;17.20;99.90
15636;DHT22;7917;50.818;6.972;2022-10-16T18:11:38;17.20;99.90
15636;DHT22;7917;50.818;6.972;2022-10-16T18:14:06;17.10;99.90
15636;DHT22;7917;50.818;6.972;2022-10-16T18:16:34;17.10;99.90
15636;DHT22;7917;50.818;6.972;2022-10-16T18:19:05;17.10;99.90
15636;DHT22;7917;50.818;6.972;2022-10-16T18:21:33;17.10;99.90
15636;DHT22;7917;50.818;6.972;2022-10-16T18:24:01;17.10;99.90
15636;DHT22;7917;50.818;6.972;2022-10-16T18:26:29;17.10;99.90
15636;DHT22;7917;50.818;6.972;2022-10-16T18:28:57;17.10;99.90
15636;DHT22;7917;50.818;6.972;2022-10-16T18:31:28;17.10;99.90
15636;DHT22;7917;50.818;6.972;2022-10-16T18:33:56;17.10;99.90
15636;DHT22;7917;50.818;6.972;2022-10-16T18:36:26;17.10;99.90
15636;DHT22;7917;50.818;6.972;2022-10-16T18:38:55;17.10;99.90
15636;DHT22;7917;50.818;6.972;2022-10-16T18:41:23;17.10;99.90
15636;DHT22;7917;50.818;6.972;2022-10-16T18:43:54;17.10;99.90
15636;DHT22;7917;50.818;6.972;2022-10-16T18:46:23;17.10;99.90
15636;DHT22;7917;50.818;6.972;2022-10-16T18:48:50;17.00;99.90
15636;DHT22;7917;50.818;6.972;2022-10-16T18:51:20;17.10;99.90
15636;DHT22;7917;50.818;6.972;2022-10-16T18:53:52;17.10;99.90
15636;DHT22;7917;50.818;6.972;2022-10-16T18:56:23;17.10;99.90
15636;DHT22;7917;50.818;6.972;2022-10-16T18:58:51;17.10;99.90
15636;DHT22;7917;50.818;6.972;2022-10-16T19:04:40;17.00;99.90
15636;DHT22;7917;50.818;6.972;2022-10-16T19:07:07;16.90;99.90
15636;DHT22;7917;50.818;6.972;2022-10-16T19:09:36;16.90;99.90
15636;DHT22;7917;50.818;6.972;2022-10-16T19:12:04;16.80;99.90
15636;DHT22;7917;50.818;6.972;2022-10-16T19:14:32;16.70;99.90
15636;DHT22;7917;50.818;6.972;2022-10-16T19:17:00;16.60;99.90
15636;DHT22;7917;50.818;6.972;2022-10-16T19:19:28;16.50;99.90
15636;DHT22;7917;50.818;6.972;2022-10-16T19:21:56;16.50;99.90
15636;DHT22;7917;50.818;6.972;2022-10-16T19:24:38;16.50;99.90
15636;DHT22;7917;50.818;6.972;2022-10-16T19:27:06;16.40;99.90
15636;DHT22;7917;50.818;6.972;2022-10-16T19:29:33;16.50;99.90
15636;DHT22;7917;50.818;6.972;2022-10-16T19:32:01;16.50;99.90
15636;DHT22;7917;50.818;6.972;2022-10-16T19:34:29;16.50;99.90
15636;DHT22;7917;50.818;6.972;2022-10-16T19:36:56;16.50;99.90
15636;DHT22;7917;50.818;6.972;2022-10-16T19:39:24;16.40;99.90
15636;DHT22;7917;50.818;6.972;2022-10-16T19:41:53;16.40;99.90
15636;DHT22;7917;50.818;6.972;2022-10-16T19:44:20;16.40;99.90
15636;DHT22;7917;50.818;6.972;2022-10-16T19:46:48;16.40;99.90
15636;DHT22;7917;50.818;6.972;2022-10-16T19:49:17;16.30;99.90
15636;DHT22;7917;50.818;6.972;2022-10-16T19:51:47;16.40;99.90
15636;DHT22;7917;50.818;6.972;2022-10-16T19:54:15;16.30;99.90
15636;DHT22;7917;50.818;6.972;2022-10-16T19:56:43;16.30;99.90
15636;DHT22;7917;50.818;6.972;2022-10-16T19:59:13;16.30;99.90
15636;DHT22;7917;50.818;6.972;2022-10-16T20:01:44;16.30;99.90
15636;DHT22;7917;50.818;6.972;2022-10-16T20:04:12;16.30;99.90
15636;DHT22;7917;50.818;6.972;2022-10-16T20:06:39;16.30;99.90
15636;DHT22;7917;50.818;6.972;2022-10-16T20:09:07;16.30;99.90
15636;DHT22;7917;50.818;6.972;2022-10-16T20:11:34;16.20;99.90
15636;DHT22;7917;50.818;6.972;2022-10-16T20:14:03;16.10;99.90
15636;DHT22;7917;50.818;6.972;2022-10-16T20:16:33;16.00;99.90
15636;DHT22;7917;50.818;6.972;2022-10-16T20:19:02;15.90;99.90
15636;DHT22;7917;50.818;6.972;2022-10-16T20:21:31;15.80;99.90
15636;DHT22;7917;50.818;6.972;2022-10-16T20:24:00;15.70;99.90
15636;DHT22;7917;50.818;6.972;2022-10-16T20:26:29;15.60;99.90
15636;DHT22;7917;50.818;6.972;2022-10-16T20:28:56;15.60;99.90
15636;DHT22;7917;50.818;6.972;2022-10-16T20:31:26;15.50;99.90
15636;DHT22;7917;50.818;6.972;2022-10-16T20:33:57;15.50;99.90
15636;DHT22;7917;50.818;6.972;2022-10-16T20:36:26;15.50;99.90
15636;DHT22;7917;50.818;6.972;2022-10-16T20:38:56;15.50;99.90
15636;DHT22;7917;50.818;6.972;2022-10-16T20:41:23;15.50;99.90
15636;DHT22;7917;50.818;6.972;2022-10-16T20:43:51;15.50;99.90
15636;DHT22;7917;50.818;6.972;2022-10-16T20:46:21;15.60;99.90
15636;DHT22;7917;50.818;6.972;2022-10-16T20:48:50;15.60;99.90
15636;DHT22;7917;50.818;6.972;2022-10-16T20:51:20;15.50;99.90
15636;DHT22;7917;50.818;6.972;2022-10-16T20:53:52;15.50;99.90
15636;DHT22;7917;50.818;6.972;2022-10-16T20:56:20;15.40;99.90
15636;DHT22;7917;50.818;6.972;2022-10-16T20:58:48;15.30;99.90
15636;DHT22;7917;50.818;6.972;2022-10-16T21:01:22;15.30;99.90
15636;DHT22;7917;50.818;6.972;2022-10-16T21:03:51;15.30;99.90
15636;DHT22;7917;50.818;6.972;2022-10-16T21:06:22;15.20;99.90
15636;DHT22;7917;50.818;6.972;2022-10-16T21:08:50;15.20;99.90
15636;DHT22;7917;50.818;6.972;2022-10-16T21:11:19;15.20;99.90
15636;DHT22;7917;50.818;6.972;2022-10-16T21:13:47;15.20;99.90
15636;DHT22;7917;50.818;6.972;2022-10-16T21:16:15;15.20;99.90
15636;DHT22;7917;50.818;6.972;2022-10-16T21:18:44;15.10;99.90
15636;DHT22;7917;50.818;6.972;2022-10-16T21:21:20;15.10;99.90
15636;DHT22;7917;50.818;6.972;2022-10-16T21:23:49;15.10;99.90
15636;DHT22;7917;50.818;6.972;2022-10-16T21:26:36;15.00;99.90
15636;DHT22;7917;50.818;6.972;2022-10-16T21:29:05;15.00;99.90
15636;DHT22;7917;50.818;6.972;2022-10-16T21:31:33;15.00;99.90
15636;DHT22;7917;50.818;6.972;2022-10-16T21:34:01;15.00;99.90
15636;DHT22;7917;50.818;6.972;2022-10-16T21:36:35;15.00;99.90
15636;DHT22;7917;50.818;6.972;2022-10-16T21:39:04;15.10;99.90
15636;DHT22;7917;50.818;6.972;2022-10-16T21:41:36;15.10;99.90
15636;DHT22;7917;50.818;6.972;2022-10-16T21:44:04;15.00;99.90
15636;DHT22;7917;50.818;6.972;2022-10-16T21:46:34;14.90;99.90
15636;DHT22;7917;50.818;6.972;2022-10-16T21:49:05;14.90;99.90
15636;DHT22;7917;50.818;6.972;2022-10-16T21:51:37;14.90;99.90
15636;DHT22;7917;50.818;6.972;2022-10-16T21:54:06;14.90;99.90
15636;DHT22;7917;50.818;6.972;2022-10-16T21:56:34;14.80;99.90
15636;DHT22;7917;50.818;6.972;2022-10-16T21:59:02;14.80;99.90
15636;DHT22;7917;50.818;6.972;2022-10-16T22:01:29;14.90;99.90
15636;DHT22;7917;50.818;6.972;2022-10-16T22:03:57;14.80;99.90
15636;DHT22;7917;50.818;6.972;2022-10-16T22:06:26;14.90;99.90
15636;DHT22;7917;50.818;6.972;2022-10-16T22:08:56;14.90;99.90
15636;DHT22;7917;50.818;6.972;2022-10-16T22:11:26;14.90;99.90
15636;DHT22;7917;50.818;6.972;2022-10-16T22:13:55;14.90;99.90
15636;DHT22;7917;50.818;6.972;2022-10-16T22:16:24;14.80;99.90
15636;DHT22;7917;50.818;6.972;2022-10-16T22:18:52;14.80;99.90
15636;DHT22;7917;50.818;6.972;2022-10-16T22:21:20;14.80;99.90
15636;DHT22;7917;50.818;6.972;2022-10-16T22:23:47;14.80;99.90
15636;DHT22;7917;50.818;6.972;2022-10-16T22:26:18;14.80;99.90
15636;DHT22;7917;50.818;6.972;2022-10-16T22:28:46;14.90;99.90
15636;DHT22;7917;50.818;6.972;2022-10-16T22:31:14;14.80;99.90
15636;DHT22;7917;50.818;6.972;2022-10-16T22:33:43;14.80;99.90
15636;DHT22;7917;50.818;6.972;2022-10-16T22:36:13;14.80;99.90
15636;DHT22;7917;50.818;6.972;2022-10-16T22:38:40;14.80;99.90
15636;DHT22;7917;50.818;6.972;2022-10-16T22:41:09;14.80;99.90
15636;DHT22;7917;50.818;6.972;2022-10-16T22:43:40;14.80;99.90
15636;DHT22;7917;50.818;6.972;2022-10-16T22:46:11;14.70;99.90
15636;DHT22;7917;50.818;6.972;2022-10-16T22:48:40;14.70;99.90
15636;DHT22;7917;50.818;6.972;2022-10-16T22:51:11;14.70;99.90
15636;DHT22;7917;50.818;6.972;2022-10-16T22:53:40;14.70;99.90
15636;DHT22;7917;50.818;6.972;2022-10-16T22:56:09;14.60;99.90
15636;DHT22;7917;50.818;6.972;2022-10-16T22:58:38;14.60;99.90
15636;DHT22;7917;50.818;6.972;2022-10-16T23:01:10;14.60;99.90
15636;DHT22;7917;50.818;6.972;2022-10-16T23:03:38;14.60;99.90
15636;DHT22;7917;50.818;6.972;2022-10-16T23:06:08;14.50;99.90
15636;DHT22;7917;50.818;6.972;2022-10-16T23:08:37;14.40;99.90
15636;DHT22;7917;50.818;6.972;2022-10-16T23:11:05;14.40;99.90
15636;DHT22;7917;50.818;6.972;2022-10-16T23:13:35;14.30;99.90
15636;DHT22;7917;50.818;6.972;2022-10-16T23:16:05;14.40;99.90
15636;DHT22;7917;50.818;6.972;2022-10-16T23:18:33;14.40;99.90
15636;DHT22;7917;50.818;6.972;2022-10-16T23:21:06;14.40;99.90
15636;DHT22;7917;50.818;6.972;2022-10-16T23:23:34;14.40;99.90
15636;DHT22;7917;50.818;6.972;2022-10-16T23:26:02;14.30;99.90
15636;DHT22;7917;50.818;6.972;2022-10-16T23:31:39;14.40;99.90
15636;DHT22;7917;50.818;6.972;2022-10-16T23:34:06;14.40;99.90
15636;DHT22;7917;50.818;6.972;2022-10-16T23:36:33;14.50;99.90
15636;DHT22;7917;50.818;6.972;2022-10-16T23:39:01;14.50;99.90
15636;DHT22;7917;50.818;6.972;2022-10-16T23:41:28;14.50;99.90
15636;DHT22;7917;50.818;6.972;2022-10-16T23:43:55;14.50;99.90
15636;DHT22;7917;50.818;6.972;2022-10-16T23:46:22;14.40;99.90
15636;DHT22;7917;50.818;6.972;2022-10-16T23:48:51;14.40;99.90